UAL1915 KDEN-KIAH
Flight info
| Callsign | UAL1915 |
|---|---|
| Flight time | 1h 51m |
| Altitude | 37000 |
| Route | SLEEK2 SLEEK NOSEW MQP GUSHR3 |
| Aircraft | A320/M-SDE3FGHIRWY/LB1 |
Departure
| Time | 2026-05-08 00:15 |
|---|---|
| Airport | Denver International Airport (KDEN) |
Arrival
| Time | 2026-05-08 02:07 |
|---|---|
| Airport | George Bush Intercontinental Airport (KIAH) |
| Time | Latitude | Longitude | Altitude | Speed | Heading |
|---|---|---|---|---|---|
| 2026-05-07 23:46 | 39.85803 | -104.67732 | 5380 ft | 0 kts | 0° |
| 2026-05-08 00:02 | 39.85791 | -104.67732 | 5376 ft | 4 kts | 0° |
| 2026-05-08 00:03 | 39.85763 | -104.67732 | 5378 ft | 4 kts | 0° |
| 2026-05-08 00:03 | 39.85736 | -104.67732 | 5379 ft | 4 kts | 0° |
| 2026-05-08 00:03 | 39.85723 | -104.67732 | 5379 ft | 0 kts | 0° |
| 2026-05-08 00:06 | 39.85725 | -104.67736 | 5379 ft | 1 kts | 320° |
| 2026-05-08 00:06 | 39.85725 | -104.67750 | 5378 ft | 6 kts | 270° |
| 2026-05-08 00:07 | 39.85688 | -104.67819 | 5379 ft | 11 kts | 231° |
| 2026-05-08 00:07 | 39.85649 | -104.67908 | 5381 ft | 12 kts | 246° |
| 2026-05-08 00:07 | 39.85637 | -104.67966 | 5381 ft | 1 kts | 262° |
| 2026-05-08 00:07 | 39.85634 | -104.67986 | 5381 ft | 4 kts | 261° |
| 2026-05-08 00:08 | 39.85620 | -104.68040 | 5381 ft | 8 kts | 244° |
| 2026-05-08 00:08 | 39.85598 | -104.68117 | 5382 ft | 10 kts | 259° |
| 2026-05-08 00:08 | 39.85595 | -104.68214 | 5381 ft | 11 kts | 270° |
| 2026-05-08 00:08 | 39.85596 | -104.68332 | 5379 ft | 15 kts | 270° |
| 2026-05-08 00:09 | 39.85600 | -104.68461 | 5372 ft | 13 kts | 282° |
| 2026-05-08 00:09 | 39.85679 | -104.68514 | 5370 ft | 15 kts | 1° |
| 2026-05-08 00:09 | 39.85795 | -104.68511 | 5370 ft | 17 kts | 0° |
| 2026-05-08 00:09 | 39.85922 | -104.68513 | 5369 ft | 19 kts | 359° |
| 2026-05-08 00:10 | 39.86053 | -104.68511 | 5368 ft | 19 kts | 1° |
| 2026-05-08 00:10 | 39.86189 | -104.68510 | 5368 ft | 21 kts | 360° |
| 2026-05-08 00:10 | 39.86291 | -104.68511 | 5364 ft | 14 kts | 360° |
| 2026-05-08 00:10 | 39.86355 | -104.68512 | 5361 ft | 2 kts | 359° |
| 2026-05-08 00:11 | 39.86388 | -104.68513 | 5363 ft | 6 kts | 358° |
| 2026-05-08 00:11 | 39.86425 | -104.68549 | 5363 ft | 8 kts | 294° |
| 2026-05-08 00:11 | 39.86426 | -104.68587 | 5363 ft | 0 kts | 269° |
| 2026-05-08 00:12 | 39.86426 | -104.68614 | 5363 ft | 6 kts | 270° |
| 2026-05-08 00:13 | 39.86428 | -104.68679 | 5363 ft | 8 kts | 281° |
| 2026-05-08 00:13 | 39.86471 | -104.68719 | 5363 ft | 5 kts | 355° |
| 2026-05-08 00:13 | 39.86483 | -104.68719 | 5363 ft | 0 kts | 359° |
| 2026-05-08 00:14 | 39.86496 | -104.68720 | 5363 ft | 13 kts | 359° |
| 2026-05-08 00:14 | 39.86852 | -104.68715 | 5363 ft | 86 kts | 0° |
| 2026-05-08 00:15 | 39.87640 | -104.68707 | 5363 ft | 140 kts | 359° |
| 2026-05-08 00:15 | 39.88752 | -104.68683 | 5546 ft | 169 kts | 358° |
| 2026-05-08 00:15 | 39.89943 | -104.68619 | 6238 ft | 170 kts | 0° |
| 2026-05-08 00:15 | 39.91091 | -104.68816 | 6804 ft | 170 kts | 330° |
| 2026-05-08 00:16 | 39.91945 | -104.69971 | 6993 ft | 201 kts | 293° |
| 2026-05-08 00:16 | 39.92030 | -104.71786 | 7825 ft | 199 kts | 256° |
| 2026-05-08 00:16 | 39.91359 | -104.73502 | 8464 ft | 228 kts | 243° |
| 2026-05-08 00:16 | 39.90631 | -104.75453 | 9054 ft | 252 kts | 251° |
| 2026-05-08 00:17 | 39.89844 | -104.77613 | 9669 ft | 276 kts | 240° |
| 2026-05-08 00:17 | 39.88436 | -104.79416 | 10218 ft | 299 kts | 215° |
| 2026-05-08 00:17 | 39.86436 | -104.80523 | 10487 ft | 330 kts | 195° |
| 2026-05-08 00:17 | 39.84050 | -104.80587 | 10700 ft | 359 kts | 172° |
| 2026-05-08 00:18 | 39.81657 | -104.79423 | 11143 ft | 377 kts | 150° |
| 2026-05-08 00:18 | 39.79672 | -104.77162 | 11833 ft | 385 kts | 129° |
| 2026-05-08 00:18 | 39.78077 | -104.74342 | 12545 ft | 389 kts | 126° |
| 2026-05-08 00:18 | 39.76659 | -104.71328 | 13254 ft | 394 kts | 114° |
| 2026-05-08 00:19 | 39.75942 | -104.69107 | 13745 ft | 396 kts | 111° |
| 2026-05-08 00:19 | 39.74919 | -104.65764 | 14385 ft | 400 kts | 111° |
| 2026-05-08 00:19 | 39.73888 | -104.62386 | 14993 ft | 404 kts | 111° |
| 2026-05-08 00:19 | 39.72844 | -104.58971 | 15580 ft | 409 kts | 111° |
| 2026-05-08 00:20 | 39.71783 | -104.55524 | 16158 ft | 414 kts | 112° |
| 2026-05-08 00:20 | 39.70313 | -104.52301 | 16725 ft | 418 kts | 131° |
| 2026-05-08 00:20 | 39.68134 | -104.49817 | 17325 ft | 419 kts | 150° |
| 2026-05-08 00:20 | 39.65470 | -104.48325 | 17829 ft | 417 kts | 169° |
| 2026-05-08 00:21 | 39.62620 | -104.47934 | 17966 ft | 410 kts | 187° |
| 2026-05-08 00:21 | 39.59815 | -104.48159 | 17980 ft | 411 kts | 185° |
| 2026-05-08 00:21 | 39.56910 | -104.48035 | 17967 ft | 413 kts | 181° |
| 2026-05-08 00:21 | 39.54046 | -104.47847 | 17961 ft | 411 kts | 181° |
| 2026-05-08 00:22 | 39.51194 | -104.47664 | 17953 ft | 411 kts | 181° |
| 2026-05-08 00:22 | 39.48340 | -104.47369 | 17945 ft | 412 kts | 178° |
| 2026-05-08 00:22 | 39.45492 | -104.46944 | 17949 ft | 412 kts | 177° |
| 2026-05-08 00:22 | 39.42639 | -104.46508 | 17948 ft | 413 kts | 177° |
| 2026-05-08 00:23 | 39.39771 | -104.46064 | 18481 ft | 417 kts | 175° |
| 2026-05-08 00:23 | 39.36928 | -104.45154 | 19075 ft | 425 kts | 166° |
| 2026-05-08 00:23 | 39.34136 | -104.43980 | 19656 ft | 429 kts | 165° |
| 2026-05-08 00:23 | 39.31295 | -104.42779 | 20302 ft | 431 kts | 165° |
| 2026-05-08 00:24 | 39.28433 | -104.41568 | 20850 ft | 435 kts | 165° |
| 2026-05-08 00:24 | 39.25503 | -104.40339 | 21373 ft | 439 kts | 166° |
| 2026-05-08 00:24 | 39.22570 | -104.39187 | 21866 ft | 443 kts | 167° |
| 2026-05-08 00:24 | 39.19638 | -104.38101 | 22337 ft | 446 kts | 168° |
| 2026-05-08 00:25 | 39.16634 | -104.37024 | 22819 ft | 450 kts | 168° |
| 2026-05-08 00:25 | 39.13560 | -104.35938 | 23279 ft | 454 kts | 168° |
| 2026-05-08 00:25 | 39.10496 | -104.34916 | 23713 ft | 456 kts | 169° |
| 2026-05-08 00:25 | 39.07443 | -104.33953 | 24095 ft | 459 kts | 170° |
| 2026-05-08 00:26 | 39.04328 | -104.32992 | 24485 ft | 462 kts | 170° |
| 2026-05-08 00:26 | 39.01196 | -104.32023 | 24855 ft | 465 kts | 170° |
| 2026-05-08 00:26 | 38.98045 | -104.31038 | 25218 ft | 468 kts | 170° |
| 2026-05-08 00:26 | 38.94832 | -104.30023 | 25581 ft | 470 kts | 170° |
| 2026-05-08 00:27 | 38.91647 | -104.29006 | 25916 ft | 473 kts | 169° |
| 2026-05-08 00:27 | 38.88445 | -104.27981 | 26287 ft | 475 kts | 169° |
| 2026-05-08 00:27 | 38.85268 | -104.26965 | 26643 ft | 478 kts | 170° |
| 2026-05-08 00:27 | 38.82034 | -104.25933 | 26992 ft | 480 kts | 170° |
| 2026-05-08 00:28 | 38.78783 | -104.24899 | 27323 ft | 483 kts | 170° |
| 2026-05-08 00:28 | 38.75510 | -104.23864 | 27643 ft | 486 kts | 170° |
| 2026-05-08 00:28 | 38.72221 | -104.22824 | 27963 ft | 488 kts | 170° |
| 2026-05-08 00:28 | 38.68916 | -104.21779 | 28253 ft | 491 kts | 169° |
| 2026-05-08 00:29 | 38.65595 | -104.20729 | 28611 ft | 492 kts | 170° |
| 2026-05-08 00:29 | 38.62265 | -104.19676 | 28934 ft | 494 kts | 170° |
| 2026-05-08 00:29 | 38.58926 | -104.18618 | 29338 ft | 494 kts | 170° |
| 2026-05-08 00:29 | 38.55592 | -104.17561 | 29810 ft | 493 kts | 169° |
| 2026-05-08 00:30 | 38.52321 | -104.16196 | 30211 ft | 497 kts | 160° |
| 2026-05-08 00:30 | 38.49230 | -104.14199 | 30579 ft | 501 kts | 150° |
| 2026-05-08 00:30 | 38.46401 | -104.11597 | 30945 ft | 502 kts | 141° |
| 2026-05-08 00:30 | 38.43745 | -104.08715 | 31340 ft | 501 kts | 141° |
| 2026-05-08 00:31 | 38.41091 | -104.05839 | 31728 ft | 501 kts | 141° |
| 2026-05-08 00:31 | 38.38433 | -104.02970 | 32114 ft | 501 kts | 141° |
| 2026-05-08 00:31 | 38.35768 | -104.00109 | 32498 ft | 501 kts | 141° |
| 2026-05-08 00:31 | 38.33102 | -103.97251 | 32895 ft | 501 kts | 140° |
| 2026-05-08 00:32 | 38.30435 | -103.94395 | 33273 ft | 501 kts | 140° |
| 2026-05-08 00:32 | 38.27767 | -103.91542 | 33650 ft | 501 kts | 140° |
| 2026-05-08 00:32 | 38.25104 | -103.88695 | 34070 ft | 499 kts | 140° |
| 2026-05-08 00:32 | 38.22448 | -103.85856 | 34464 ft | 498 kts | 140° |
| 2026-05-08 00:33 | 38.19804 | -103.83033 | 34894 ft | 496 kts | 141° |
| 2026-05-08 00:33 | 38.17169 | -103.80217 | 35305 ft | 494 kts | 141° |
| 2026-05-08 00:33 | 38.14544 | -103.77417 | 35707 ft | 492 kts | 141° |
| 2026-05-08 00:33 | 38.11927 | -103.74628 | 36103 ft | 490 kts | 142° |
| 2026-05-08 00:34 | 38.09321 | -103.71859 | 36489 ft | 488 kts | 142° |
| 2026-05-08 00:34 | 38.06721 | -103.69100 | 36824 ft | 487 kts | 142° |
| 2026-05-08 00:34 | 38.04130 | -103.66329 | 36944 ft | 488 kts | 141° |
| 2026-05-08 00:34 | 38.01558 | -103.63514 | 36968 ft | 489 kts | 141° |
| 2026-05-08 00:35 | 37.96453 | -103.57818 | 36891 ft | 489 kts | 140° |
| 2026-05-08 00:35 | 37.91353 | -103.52123 | 36898 ft | 489 kts | 141° |
| 2026-05-08 00:36 | 37.86235 | -103.46470 | 36882 ft | 487 kts | 142° |
| 2026-05-08 00:36 | 37.81126 | -103.40874 | 36902 ft | 485 kts | 142° |
| 2026-05-08 00:37 | 37.76030 | -103.35287 | 36907 ft | 485 kts | 142° |
| 2026-05-08 00:38 | 37.68373 | -103.26921 | 36903 ft | 485 kts | 142° |
| 2026-05-08 00:38 | 37.63299 | -103.21383 | 36912 ft | 486 kts | 142° |
| 2026-05-08 00:39 | 37.58152 | -103.15779 | 36912 ft | 486 kts | 142° |
| 2026-05-08 00:39 | 37.53071 | -103.10254 | 36924 ft | 485 kts | 142° |
| 2026-05-08 00:40 | 37.47961 | -103.04707 | 36918 ft | 485 kts | 142° |
| 2026-05-08 00:40 | 37.42850 | -102.99175 | 36907 ft | 484 kts | 142° |
| 2026-05-08 00:41 | 37.37740 | -102.93649 | 36914 ft | 484 kts | 142° |
| 2026-05-08 00:41 | 37.32628 | -102.88135 | 36912 ft | 484 kts | 142° |
| 2026-05-08 00:42 | 37.27510 | -102.82627 | 36916 ft | 484 kts | 142° |
| 2026-05-08 00:42 | 37.22391 | -102.77120 | 36902 ft | 485 kts | 143° |
| 2026-05-08 00:43 | 37.17273 | -102.71621 | 36919 ft | 484 kts | 143° |
| 2026-05-08 00:43 | 37.12155 | -102.66140 | 36918 ft | 484 kts | 143° |
| 2026-05-08 00:44 | 37.07030 | -102.60672 | 36918 ft | 484 kts | 143° |
| 2026-05-08 00:44 | 37.01917 | -102.55213 | 36911 ft | 483 kts | 143° |
| 2026-05-08 00:45 | 36.96812 | -102.49769 | 36924 ft | 482 kts | 144° |
| 2026-05-08 00:45 | 36.91713 | -102.44342 | 36927 ft | 481 kts | 144° |
| 2026-05-08 00:46 | 36.86619 | -102.38929 | 36932 ft | 480 kts | 144° |
| 2026-05-08 00:46 | 36.81523 | -102.33535 | 36910 ft | 480 kts | 145° |
| 2026-05-08 00:47 | 36.76427 | -102.28158 | 36924 ft | 480 kts | 145° |
| 2026-05-08 00:47 | 36.71329 | -102.22783 | 36931 ft | 480 kts | 145° |
| 2026-05-08 00:48 | 36.66232 | -102.17404 | 36936 ft | 480 kts | 145° |
| 2026-05-08 00:48 | 36.61132 | -102.12035 | 36912 ft | 480 kts | 146° |
| 2026-05-08 00:49 | 36.56035 | -102.06681 | 36932 ft | 479 kts | 145° |
| 2026-05-08 00:49 | 36.50942 | -102.01348 | 36949 ft | 478 kts | 146° |
| 2026-05-08 00:50 | 36.45851 | -101.96024 | 36943 ft | 478 kts | 146° |
| 2026-05-08 00:50 | 36.40761 | -101.90707 | 36946 ft | 478 kts | 146° |
| 2026-05-08 00:51 | 36.35671 | -101.85401 | 36928 ft | 477 kts | 147° |
| 2026-05-08 00:51 | 36.30586 | -101.80112 | 36944 ft | 477 kts | 147° |
| 2026-05-08 00:52 | 36.25503 | -101.74836 | 36949 ft | 477 kts | 147° |
| 2026-05-08 00:52 | 36.20421 | -101.69567 | 36949 ft | 476 kts | 147° |
| 2026-05-08 00:53 | 36.15341 | -101.64304 | 36942 ft | 476 kts | 148° |
| 2026-05-08 00:53 | 36.10262 | -101.59050 | 36947 ft | 476 kts | 148° |
| 2026-05-08 00:54 | 36.05212 | -101.53850 | 36961 ft | 476 kts | 148° |
| 2026-05-08 00:54 | 36.00127 | -101.48611 | 36961 ft | 476 kts | 148° |
| 2026-05-08 00:55 | 35.95042 | -101.43381 | 36930 ft | 476 kts | 149° |
| 2026-05-08 00:55 | 35.89958 | -101.38168 | 36967 ft | 475 kts | 149° |
| 2026-05-08 00:56 | 35.84876 | -101.32968 | 36998 ft | 475 kts | 149° |
| 2026-05-08 00:56 | 35.79795 | -101.27770 | 37012 ft | 475 kts | 150° |
| 2026-05-08 00:57 | 35.74711 | -101.22579 | 37002 ft | 475 kts | 150° |
| 2026-05-08 00:57 | 35.69627 | -101.17391 | 37002 ft | 474 kts | 150° |
| 2026-05-08 00:58 | 35.64548 | -101.12219 | 37020 ft | 474 kts | 150° |
| 2026-05-08 00:58 | 35.59469 | -101.07065 | 37032 ft | 473 kts | 151° |
| 2026-05-08 00:59 | 35.54391 | -101.01924 | 37032 ft | 473 kts | 151° |
| 2026-05-08 00:59 | 35.49344 | -100.96721 | 37026 ft | 476 kts | 149° |
| 2026-05-08 01:00 | 35.44449 | -100.91214 | 37011 ft | 478 kts | 147° |
| 2026-05-08 01:00 | 35.39604 | -100.85622 | 36999 ft | 478 kts | 147° |
| 2026-05-08 01:01 | 35.34728 | -100.80098 | 36990 ft | 477 kts | 148° |
| 2026-05-08 01:01 | 35.29815 | -100.74643 | 36979 ft | 477 kts | 148° |
| 2026-05-08 01:02 | 35.24906 | -100.69198 | 36958 ft | 476 kts | 148° |
| 2026-05-08 01:02 | 35.20012 | -100.63748 | 36975 ft | 476 kts | 148° |
| 2026-05-08 01:03 | 35.15118 | -100.58308 | 36983 ft | 475 kts | 148° |
| 2026-05-08 01:03 | 35.11047 | -100.53795 | 36992 ft | 476 kts | 149° |
| 2026-05-08 01:04 | 35.06141 | -100.48360 | 36986 ft | 476 kts | 149° |
| 2026-05-08 01:04 | 35.00440 | -100.42056 | 36963 ft | 476 kts | 149° |
| 2026-05-08 01:05 | 34.96323 | -100.37521 | 36971 ft | 476 kts | 149° |
| 2026-05-08 01:05 | 34.91413 | -100.32107 | 36983 ft | 476 kts | 149° |
| 2026-05-08 01:06 | 34.86503 | -100.26695 | 36986 ft | 476 kts | 149° |
| 2026-05-08 01:06 | 34.81586 | -100.21302 | 36949 ft | 476 kts | 150° |
| 2026-05-08 01:07 | 34.76667 | -100.15914 | 36958 ft | 475 kts | 150° |
| 2026-05-08 01:07 | 34.71752 | -100.10539 | 36969 ft | 475 kts | 150° |
| 2026-05-08 01:08 | 34.66835 | -100.05167 | 36976 ft | 475 kts | 150° |
| 2026-05-08 01:08 | 34.61918 | -99.99804 | 36980 ft | 475 kts | 150° |
| 2026-05-08 01:09 | 34.57037 | -99.94477 | 36938 ft | 475 kts | 150° |
| 2026-05-08 01:09 | 34.52121 | -99.89136 | 36965 ft | 474 kts | 150° |
| 2026-05-08 01:10 | 34.47210 | -99.83809 | 36975 ft | 474 kts | 150° |
| 2026-05-08 01:10 | 34.42297 | -99.78489 | 36975 ft | 473 kts | 150° |
| 2026-05-08 01:11 | 34.37388 | -99.73174 | 36982 ft | 473 kts | 150° |
| 2026-05-08 01:11 | 34.32479 | -99.67867 | 36954 ft | 473 kts | 151° |
| 2026-05-08 01:12 | 34.27567 | -99.62564 | 36970 ft | 473 kts | 151° |
| 2026-05-08 01:12 | 34.22652 | -99.57282 | 36984 ft | 473 kts | 151° |
| 2026-05-08 01:13 | 34.17736 | -99.51995 | 36989 ft | 473 kts | 151° |
| 2026-05-08 01:13 | 34.12816 | -99.46720 | 36996 ft | 473 kts | 151° |
| 2026-05-08 01:14 | 34.07892 | -99.41453 | 36972 ft | 473 kts | 152° |
| 2026-05-08 01:14 | 34.02969 | -99.36194 | 36997 ft | 473 kts | 152° |
| 2026-05-08 01:15 | 33.98042 | -99.30929 | 37002 ft | 473 kts | 152° |
| 2026-05-08 01:15 | 33.93113 | -99.25673 | 37009 ft | 473 kts | 152° |
| 2026-05-08 01:16 | 33.88182 | -99.20427 | 37008 ft | 473 kts | 152° |
| 2026-05-08 01:16 | 33.83254 | -99.15190 | 37003 ft | 472 kts | 152° |
| 2026-05-08 01:17 | 33.78331 | -99.09961 | 37015 ft | 472 kts | 152° |
| 2026-05-08 01:17 | 33.73407 | -99.04738 | 37015 ft | 472 kts | 152° |
| 2026-05-08 01:18 | 33.68482 | -98.99532 | 37017 ft | 472 kts | 152° |
| 2026-05-08 01:18 | 33.63586 | -98.94363 | 37021 ft | 472 kts | 152° |
| 2026-05-08 01:19 | 33.58625 | -98.89130 | 37012 ft | 471 kts | 152° |
| 2026-05-08 01:19 | 33.53703 | -98.83938 | 37022 ft | 471 kts | 152° |
| 2026-05-08 01:20 | 33.48779 | -98.78766 | 37027 ft | 471 kts | 152° |
| 2026-05-08 01:20 | 33.43854 | -98.73604 | 37031 ft | 471 kts | 152° |
| 2026-05-08 01:21 | 33.38959 | -98.68472 | 37021 ft | 471 kts | 152° |
| 2026-05-08 01:21 | 33.34026 | -98.63313 | 37005 ft | 471 kts | 152° |
| 2026-05-08 01:22 | 33.29078 | -98.58158 | 37015 ft | 472 kts | 152° |
| 2026-05-08 01:22 | 33.24131 | -98.53001 | 37023 ft | 472 kts | 152° |
| 2026-05-08 01:23 | 33.19149 | -98.47801 | 37032 ft | 472 kts | 152° |
| 2026-05-08 01:23 | 33.14229 | -98.42685 | 37032 ft | 472 kts | 152° |
| 2026-05-08 01:24 | 33.09270 | -98.37548 | 37033 ft | 472 kts | 152° |
| 2026-05-08 01:24 | 33.04314 | -98.32408 | 37035 ft | 473 kts | 152° |
| 2026-05-08 01:25 | 32.99343 | -98.27263 | 37028 ft | 474 kts | 152° |
| 2026-05-08 01:25 | 32.94360 | -98.22113 | 37029 ft | 474 kts | 152° |
| 2026-05-08 01:26 | 32.89371 | -98.16968 | 37031 ft | 475 kts | 152° |
| 2026-05-08 01:26 | 32.84364 | -98.11827 | 37006 ft | 476 kts | 152° |
| 2026-05-08 01:27 | 32.79341 | -98.06675 | 37016 ft | 477 kts | 152° |
| 2026-05-08 01:27 | 32.74310 | -98.01508 | 37021 ft | 478 kts | 152° |
| 2026-05-08 01:28 | 32.69513 | -97.95873 | 37020 ft | 490 kts | 145° |
| 2026-05-08 01:28 | 32.64828 | -97.89979 | 37015 ft | 491 kts | 145° |
| 2026-05-08 01:29 | 32.60115 | -97.84075 | 37011 ft | 494 kts | 145° |
| 2026-05-08 01:29 | 32.55380 | -97.78170 | 37023 ft | 494 kts | 145° |
| 2026-05-08 01:30 | 32.50634 | -97.72269 | 37031 ft | 495 kts | 145° |
| 2026-05-08 01:30 | 32.45891 | -97.66362 | 37038 ft | 495 kts | 145° |
| 2026-05-08 01:31 | 32.41147 | -97.60458 | 37044 ft | 495 kts | 145° |
| 2026-05-08 01:31 | 32.36423 | -97.54603 | 37003 ft | 495 kts | 145° |
| 2026-05-08 01:32 | 32.31663 | -97.48724 | 37026 ft | 495 kts | 145° |
| 2026-05-08 01:32 | 32.26903 | -97.42830 | 37041 ft | 495 kts | 145° |
| 2026-05-08 01:33 | 32.22138 | -97.36942 | 37051 ft | 496 kts | 145° |
| 2026-05-08 01:33 | 32.17378 | -97.31056 | 37059 ft | 496 kts | 145° |
| 2026-05-08 01:34 | 32.12607 | -97.25180 | 37031 ft | 495 kts | 145° |
| 2026-05-08 01:34 | 32.07830 | -97.19337 | 37054 ft | 494 kts | 146° |
| 2026-05-08 01:35 | 32.03064 | -97.13499 | 37067 ft | 494 kts | 145° |
| 2026-05-08 01:35 | 31.98308 | -97.07657 | 37069 ft | 494 kts | 145° |
| 2026-05-08 01:36 | 31.93543 | -97.01823 | 37068 ft | 494 kts | 146° |
| 2026-05-08 01:36 | 31.88779 | -96.96010 | 37068 ft | 493 kts | 146° |
| 2026-05-08 01:37 | 31.84015 | -96.90209 | 37070 ft | 492 kts | 146° |
| 2026-05-08 01:37 | 31.79282 | -96.84441 | 36349 ft | 488 kts | 145° |
| 2026-05-08 01:37 | 31.76920 | -96.81571 | 35634 ft | 489 kts | 144° |
| 2026-05-08 01:38 | 31.74555 | -96.78701 | 34930 ft | 490 kts | 144° |
| 2026-05-08 01:38 | 31.72182 | -96.75824 | 34229 ft | 490 kts | 143° |
| 2026-05-08 01:38 | 31.69811 | -96.72950 | 33428 ft | 490 kts | 143° |
| 2026-05-08 01:38 | 31.67435 | -96.70071 | 32570 ft | 491 kts | 143° |
| 2026-05-08 01:39 | 31.65053 | -96.67188 | 31706 ft | 493 kts | 143° |
| 2026-05-08 01:39 | 31.62662 | -96.64298 | 30824 ft | 494 kts | 143° |
| 2026-05-08 01:39 | 31.60266 | -96.61407 | 29862 ft | 496 kts | 142° |
| 2026-05-08 01:39 | 31.57859 | -96.58505 | 29303 ft | 497 kts | 142° |
| 2026-05-08 01:40 | 31.55444 | -96.55592 | 29057 ft | 499 kts | 142° |
| 2026-05-08 01:40 | 31.50209 | -96.50444 | 29064 ft | 483 kts | 156° |
| 2026-05-08 01:41 | 31.44352 | -96.46753 | 29065 ft | 477 kts | 161° |
| 2026-05-08 01:41 | 31.38466 | -96.43167 | 29057 ft | 477 kts | 161° |
| 2026-05-08 01:42 | 31.32587 | -96.39565 | 29063 ft | 470 kts | 161° |
| 2026-05-08 01:42 | 31.29752 | -96.37814 | 28842 ft | 452 kts | 161° |
| 2026-05-08 01:42 | 31.27013 | -96.36118 | 27921 ft | 440 kts | 161° |
| 2026-05-08 01:42 | 31.24336 | -96.34475 | 27493 ft | 433 kts | 162° |
| 2026-05-08 01:43 | 31.21665 | -96.32857 | 26954 ft | 431 kts | 162° |
| 2026-05-08 01:43 | 31.19004 | -96.31254 | 26347 ft | 429 kts | 162° |
| 2026-05-08 01:43 | 31.16360 | -96.29662 | 25748 ft | 427 kts | 161° |
| 2026-05-08 01:43 | 31.13724 | -96.28069 | 25145 ft | 426 kts | 161° |
| 2026-05-08 01:44 | 31.11108 | -96.26480 | 24648 ft | 422 kts | 161° |
| 2026-05-08 01:44 | 31.08500 | -96.24893 | 24106 ft | 421 kts | 161° |
| 2026-05-08 01:44 | 31.05936 | -96.23329 | 23430 ft | 413 kts | 161° |
| 2026-05-08 01:44 | 31.03414 | -96.21790 | 22703 ft | 406 kts | 160° |
| 2026-05-08 01:45 | 31.00896 | -96.20263 | 22146 ft | 409 kts | 160° |
| 2026-05-08 01:45 | 30.98378 | -96.18721 | 21565 ft | 409 kts | 159° |
| 2026-05-08 01:45 | 30.95876 | -96.17139 | 21076 ft | 407 kts | 158° |
| 2026-05-08 01:45 | 30.93401 | -96.15537 | 20499 ft | 407 kts | 158° |
| 2026-05-08 01:46 | 30.90959 | -96.13934 | 20004 ft | 398 kts | 157° |
| 2026-05-08 01:46 | 30.88565 | -96.12358 | 19280 ft | 391 kts | 157° |
| 2026-05-08 01:46 | 30.86190 | -96.10810 | 18744 ft | 391 kts | 157° |
| 2026-05-08 01:46 | 30.83813 | -96.09276 | 18167 ft | 390 kts | 157° |
| 2026-05-08 01:47 | 30.81453 | -96.07759 | 17571 ft | 386 kts | 158° |
| 2026-05-08 01:47 | 30.79131 | -96.06266 | 16953 ft | 374 kts | 158° |
| 2026-05-08 01:47 | 30.76888 | -96.04822 | 16506 ft | 367 kts | 158° |
| 2026-05-08 01:48 | 30.72418 | -96.01969 | 15493 ft | 365 kts | 158° |
| 2026-05-08 01:48 | 30.70196 | -96.00550 | 14979 ft | 363 kts | 157° |
| 2026-05-08 01:48 | 30.67988 | -95.99136 | 14451 ft | 362 kts | 157° |
| 2026-05-08 01:48 | 30.65783 | -95.97725 | 13951 ft | 361 kts | 157° |
| 2026-05-08 01:49 | 30.63590 | -95.96324 | 13395 ft | 356 kts | 156° |
| 2026-05-08 01:49 | 30.61435 | -95.94947 | 12900 ft | 352 kts | 156° |
| 2026-05-08 01:49 | 30.60018 | -95.94044 | 12519 ft | 351 kts | 156° |
| 2026-05-08 01:49 | 30.57203 | -95.92252 | 11849 ft | 346 kts | 156° |
| 2026-05-08 01:50 | 30.55113 | -95.90918 | 11380 ft | 337 kts | 155° |
| 2026-05-08 01:50 | 30.53128 | -95.89640 | 11182 ft | 317 kts | 155° |
| 2026-05-08 01:50 | 30.51846 | -95.88814 | 10972 ft | 307 kts | 155° |
| 2026-05-08 01:50 | 30.49332 | -95.87425 | 10601 ft | 298 kts | 167° |
| 2026-05-08 01:51 | 30.47990 | -95.87034 | 10443 ft | 292 kts | 174° |
| 2026-05-08 01:51 | 30.45983 | -95.86781 | 10209 ft | 289 kts | 179° |
| 2026-05-08 01:51 | 30.43977 | -95.86565 | 9814 ft | 291 kts | 178° |
| 2026-05-08 01:51 | 30.41957 | -95.86340 | 9405 ft | 291 kts | 178° |
| 2026-05-08 01:52 | 30.39961 | -95.86113 | 8844 ft | 288 kts | 177° |
| 2026-05-08 01:52 | 30.37986 | -95.85885 | 8322 ft | 283 kts | 176° |
| 2026-05-08 01:52 | 30.36041 | -95.85662 | 7844 ft | 279 kts | 176° |
| 2026-05-08 01:52 | 30.34120 | -95.85445 | 7374 ft | 276 kts | 175° |
| 2026-05-08 01:53 | 30.32214 | -95.85229 | 6909 ft | 274 kts | 175° |
| 2026-05-08 01:53 | 30.30319 | -95.85014 | 6447 ft | 272 kts | 174° |
| 2026-05-08 01:53 | 30.28476 | -95.84807 | 6238 ft | 256 kts | 174° |
| 2026-05-08 01:53 | 30.26779 | -95.84617 | 6171 ft | 234 kts | 174° |
| 2026-05-08 01:54 | 30.25230 | -95.84444 | 6087 ft | 214 kts | 173° |
| 2026-05-08 01:54 | 30.23795 | -95.84253 | 5997 ft | 202 kts | 167° |
| 2026-05-08 01:54 | 30.22520 | -95.83740 | 5915 ft | 193 kts | 152° |
| 2026-05-08 01:54 | 30.21451 | -95.82908 | 5831 ft | 180 kts | 139° |
| 2026-05-08 01:55 | 30.20615 | -95.81879 | 5694 ft | 171 kts | 132° |
| 2026-05-08 01:55 | 30.19857 | -95.80868 | 5590 ft | 162 kts | 132° |
| 2026-05-08 01:55 | 30.19140 | -95.79913 | 5456 ft | 154 kts | 132° |
| 2026-05-08 01:55 | 30.18451 | -95.78997 | 5260 ft | 152 kts | 132° |
| 2026-05-08 01:56 | 30.17735 | -95.78047 | 4981 ft | 159 kts | 132° |
| 2026-05-08 01:56 | 30.17019 | -95.77095 | 4829 ft | 153 kts | 132° |
| 2026-05-08 01:56 | 30.16337 | -95.76187 | 4703 ft | 146 kts | 133° |
| 2026-05-08 01:56 | 30.15686 | -95.75320 | 4554 ft | 140 kts | 132° |
| 2026-05-08 01:57 | 30.15051 | -95.74472 | 4344 ft | 139 kts | 132° |
| 2026-05-08 01:57 | 30.14423 | -95.73636 | 4112 ft | 137 kts | 132° |
| 2026-05-08 01:57 | 30.13803 | -95.72810 | 3875 ft | 135 kts | 132° |
| 2026-05-08 01:57 | 30.13188 | -95.71994 | 3640 ft | 134 kts | 131° |
| 2026-05-08 01:58 | 30.12578 | -95.71185 | 3414 ft | 133 kts | 131° |
| 2026-05-08 01:58 | 30.11975 | -95.70383 | 3178 ft | 131 kts | 130° |
| 2026-05-08 01:58 | 30.11373 | -95.69584 | 3062 ft | 133 kts | 130° |
| 2026-05-08 01:58 | 30.10770 | -95.68784 | 2942 ft | 134 kts | 130° |
| 2026-05-08 01:59 | 30.10087 | -95.67873 | 3034 ft | 163 kts | 130° |
| 2026-05-08 01:59 | 30.09328 | -95.66862 | 2993 ft | 168 kts | 130° |
| 2026-05-08 01:59 | 30.08558 | -95.65838 | 2978 ft | 169 kts | 130° |
| 2026-05-08 01:59 | 30.07784 | -95.64812 | 2970 ft | 170 kts | 130° |
| 2026-05-08 02:00 | 30.07011 | -95.63785 | 2959 ft | 169 kts | 130° |
| 2026-05-08 02:00 | 30.06239 | -95.62760 | 3017 ft | 169 kts | 130° |
| 2026-05-08 02:00 | 30.05468 | -95.61736 | 3035 ft | 169 kts | 130° |
| 2026-05-08 02:00 | 30.04695 | -95.60712 | 3036 ft | 169 kts | 130° |
| 2026-05-08 02:01 | 30.03919 | -95.59686 | 3037 ft | 170 kts | 130° |
| 2026-05-08 02:01 | 30.03144 | -95.58657 | 3037 ft | 170 kts | 130° |
| 2026-05-08 02:01 | 30.02360 | -95.57617 | 3040 ft | 176 kts | 130° |
| 2026-05-08 02:01 | 30.01544 | -95.56537 | 3034 ft | 180 kts | 130° |
| 2026-05-08 02:02 | 30.00720 | -95.55447 | 3036 ft | 180 kts | 130° |
| 2026-05-08 02:02 | 29.99930 | -95.54398 | 3026 ft | 162 kts | 128° |
| 2026-05-08 02:02 | 29.99433 | -95.53321 | 3029 ft | 146 kts | 108° |
| 2026-05-08 02:02 | 29.99309 | -95.52188 | 2904 ft | 141 kts | 92° |
| 2026-05-08 02:03 | 29.99313 | -95.51064 | 2715 ft | 139 kts | 92° |
| 2026-05-08 02:03 | 29.99317 | -95.49955 | 2534 ft | 137 kts | 92° |
| 2026-05-08 02:03 | 29.99320 | -95.48866 | 2354 ft | 135 kts | 92° |
| 2026-05-08 02:03 | 29.99322 | -95.47784 | 2176 ft | 135 kts | 90° |
| 2026-05-08 02:04 | 29.99324 | -95.46711 | 1998 ft | 133 kts | 91° |
| 2026-05-08 02:04 | 29.99326 | -95.45642 | 1817 ft | 133 kts | 90° |
| 2026-05-08 02:04 | 29.99328 | -95.44574 | 1641 ft | 134 kts | 90° |
| 2026-05-08 02:04 | 29.99330 | -95.43503 | 1453 ft | 135 kts | 89° |
| 2026-05-08 02:05 | 29.99332 | -95.42419 | 1280 ft | 135 kts | 88° |
| 2026-05-08 02:05 | 29.99333 | -95.41334 | 1098 ft | 135 kts | 89° |
| 2026-05-08 02:05 | 29.99335 | -95.40244 | 931 ft | 139 kts | 88° |
| 2026-05-08 02:05 | 29.99337 | -95.39118 | 745 ft | 141 kts | 86° |
| 2026-05-08 02:06 | 29.99339 | -95.37975 | 561 ft | 145 kts | 87° |
| 2026-05-08 02:06 | 29.99340 | -95.36819 | 380 ft | 144 kts | 87° |
| 2026-05-08 02:06 | 29.99338 | -95.35657 | 191 ft | 145 kts | 86° |
| 2026-05-08 02:06 | 29.99331 | -95.34513 | 107 ft | 135 kts | 87° |
| 2026-05-08 02:07 | 29.99346 | -95.33734 | 107 ft | 54 kts | 90° |
| 2026-05-08 02:07 | 29.99343 | -95.33566 | 109 ft | 13 kts | 92° |
| 2026-05-08 02:07 | 29.99337 | -95.33426 | 108 ft | 20 kts | 95° |
| 2026-05-08 02:07 | 29.99300 | -95.33272 | 108 ft | 18 kts | 114° |
| 2026-05-08 02:08 | 29.99249 | -95.33164 | 107 ft | 13 kts | 121° |
| 2026-05-08 02:08 | 29.99244 | -95.33155 | 107 ft | 0 kts | 121° |
| 2026-05-08 02:08 | 29.99238 | -95.33144 | 107 ft | 3 kts | 121° |
| 2026-05-08 02:09 | 29.99220 | -95.33108 | 107 ft | 7 kts | 120° |
| 2026-05-08 02:09 | 29.99187 | -95.33049 | 106 ft | 10 kts | 133° |
| 2026-05-08 02:09 | 29.99111 | -95.33025 | 107 ft | 13 kts | 178° |
| 2026-05-08 02:09 | 29.99010 | -95.33025 | 107 ft | 16 kts | 180° |
| 2026-05-08 02:10 | 29.98887 | -95.33025 | 107 ft | 19 kts | 180° |
| 2026-05-08 02:10 | 29.98770 | -95.33025 | 107 ft | 11 kts | 180° |
| 2026-05-08 02:10 | 29.98684 | -95.33025 | 107 ft | 14 kts | 180° |
| 2026-05-08 02:10 | 29.98579 | -95.33025 | 107 ft | 16 kts | 179° |
| 2026-05-08 02:11 | 29.98465 | -95.33025 | 107 ft | 17 kts | 180° |
| 2026-05-08 02:11 | 29.98350 | -95.33026 | 107 ft | 11 kts | 184° |
| 2026-05-08 02:11 | 29.98304 | -95.33083 | 107 ft | 12 kts | 260° |
| 2026-05-08 02:11 | 29.98308 | -95.33186 | 107 ft | 14 kts | 296° |
| 2026-05-08 02:12 | 29.98347 | -95.33210 | 106 ft | 4 kts | 354° |
| 2026-05-08 02:12 | 29.98368 | -95.33211 | 107 ft | 1 kts | 359° |
| 2026-05-08 02:12 | 29.98376 | -95.33211 | 107 ft | 0 kts | 359° |